Terminal Aerodrome Forecast
Issued by NWS Chicago, IL

Home | Current Version | Previous Version | Graphics & Text | Print | Product List | Glossary On
Versions: 1 2 3 4 5 6 7 8 9 10 11 12 13 14 15 16 17 18 19 20 21 22 23 24 25 26 27 28 29 30 31 32 33 34
199
FTUS43 KLOT 221720
TAFRFD
TAF
KRFD 221720Z 2218/2318 35005KT 3SM BR OVC006
     FM222000 36008KT 6SM BR OVC010
     FM230500 35008KT 3SM BR OVC007
     FM231500 34010KT P6SM OVC015=

USA.gov is the U.S. government's official web portal to all federal, state and local government web resources and services.